Time;durP1;ratioP1;P1;durP2;ratioP2;P2;SDS_P1;SDS_P2;PMS_P1;PMS_P2;Temp;Humidity;BMP_temperature;BMP_pressure;BME280_temperature;BME280_humidity;BME280_pressure;Samples;Min_cycle;Max_cycle;Signal;HPM_P1;HPM_P2
2022/03/19 00:00:04;;;;;;;;;;;6.40;99.90;;;4.63;91.63;103963.38;2567978;30;138185;-41
2022/03/19 00:02:42;;;;;;;;;;;6.30;99.90;;;4.45;91.73;103951.88;2568606;30;138672;-41
2022/03/19 00:05:09;;;;;;;;;;;6.20;99.90;;;4.51;91.53;103958.72;2568906;30;138419;-41
2022/03/19 00:07:40;;;;;;;;;;;6.20;99.90;;;4.44;92.49;103956.41;2569584;30;137095;-41
2022/03/19 00:10:10;;;;;;;;;;;6.10;99.90;;;4.31;93.01;103959.00;2569681;30;138979;-41
2022/03/19 00:12:39;;;;;;;;;;;6.00;99.90;;;4.26;92.71;103955.69;2567878;30;136730;-41
2022/03/19 00:15:08;;;;;;;;;;;5.90;99.90;;;4.27;94.12;103964.69;2567154;30;139132;-42
2022/03/19 00:17:37;;;;;;;;;;;5.90;99.90;;;4.14;93.58;103967.28;2567250;30;136849;-41
2022/03/19 00:20:05;;;;;;;;;;;5.80;99.90;;;4.06;94.75;103945.22;2569137;30;137945;-41
2022/03/19 00:22:33;;;;;;;;;;;5.80;99.90;;;4.09;94.31;103961.25;2568843;30;137099;-41
2022/03/19 00:25:00;;;;;;;;;;;5.80;99.90;;;4.13;96.30;103955.56;2567844;30;139326;-41
2022/03/19 00:27:28;;;;;;;;;;;5.80;99.90;;;4.22;96.67;103955.97;2568199;30;137211;-41
2022/03/19 00:29:55;;;;;;;;;;;5.80;99.90;;;4.23;96.42;103958.59;2568691;30;137208;-42
2022/03/19 00:32:23;;;;;;;;;;;5.80;99.90;;;4.12;96.32;103956.53;2567830;30;136854;-41
2022/03/19 00:34:50;;;;;;;;;;;5.70;99.90;;;4.03;96.71;103954.41;2567982;30;138348;-41
2022/03/19 00:37:18;;;;;;;;;;;5.70;99.90;;;3.95;97.41;103956.66;2569029;30;136896;-42
2022/03/19 00:39:46;;;;;;;;;;;5.60;99.90;;;3.86;97.85;103950.88;2569065;30;138846;-43
2022/03/19 00:42:13;;;;;;;;;;;5.60;99.90;;;3.75;97.98;103961.44;2567461;30;136903;-40
2022/03/19 00:44:40;;;;;;;;;;;5.50;99.90;;;3.65;98.13;103954.81;2568118;30;138458;-41
2022/03/19 00:47:08;;;;;;;;;;;5.40;99.90;;;3.60;98.81;103949.72;2567321;30;136982;-41
2022/03/19 00:49:35;;;;;;;;;;;5.40;99.90;;;3.53;98.42;103942.91;2569207;30;138555;-41
2022/03/19 00:52:04;;;;;;;;;;;5.30;99.90;;;3.47;99.53;103938.75;2567980;30;136891;-42
2022/03/19 00:54:31;;;;;;;;;;;5.20;99.90;;;3.46;99.86;103937.03;2567578;30;137546;-41
2022/03/19 00:56:58;;;;;;;;;;;5.20;99.90;;;3.34;99.92;103941.28;2568776;30;136834;-43
2022/03/19 00:59:26;;;;;;;;;;;5.10;99.90;;;3.23;100.00;103933.81;2568258;30;138426;-41
2022/03/19 01:01:53;;;;;;;;;;;5.00;99.90;;;3.13;100.00;103937.97;2568164;30;136931;-41
2022/03/19 01:04:21;;;;;;;;;;;4.90;99.90;;;3.06;100.00;103931.19;2568211;30;138120;-42
2022/03/19 01:06:48;;;;;;;;;;;4.80;99.90;;;2.99;100.00;103928.84;2567531;30;136975;-41
2022/03/19 01:09:16;;;;;;;;;;;4.80;99.90;;;2.96;100.00;103928.13;2568502;30;139060;-41
2022/03/19 01:11:49;;;;;;;;;;;4.70;99.90;;;2.95;100.00;103926.38;2567696;30;137070;-41
2022/03/19 01:14:16;;;;;;;;;;;4.60;99.90;;;2.81;100.00;103925.34;2567194;30;138693;-41
2022/03/19 01:16:44;;;;;;;;;;;4.50;99.90;;;2.75;100.00;103927.50;2568869;30;137100;-44
2022/03/19 01:19:11;;;;;;;;;;;4.50;99.90;;;2.67;100.00;103920.72;2568803;30;138454;-41
2022/03/19 01:21:39;;;;;;;;;;;4.50;99.90;;;2.63;100.00;103913.72;2568762;30;137184;-41
2022/03/19 01:24:07;;;;;;;;;;;4.40;99.90;;;2.55;100.00;103918.66;2568287;30;138391;-41
2022/03/19 01:26:35;;;;;;;;;;;4.30;99.90;;;2.47;100.00;103912.84;2568906;30;137245;-41
2022/03/19 01:29:03;;;;;;;;;;;4.30;99.90;;;2.42;100.00;103921.16;2568204;30;138376;-41
2022/03/19 01:31:30;;;;;;;;;;;4.20;99.90;;;2.42;100.00;103918.47;2567563;30;138176;-42
2022/03/19 01:33:58;;;;;;;;;;;4.20;99.90;;;2.34;100.00;103905.38;2574823;30;138237;-39
2022/03/19 01:36:25;;;;;;;;;;;4.20;99.90;;;2.38;100.00;103917.75;2566287;30;137315;-40
2022/03/19 01:38:53;;;;;;;;;;;4.10;99.90;;;2.30;100.00;103919.97;2566680;30;139227;-39
2022/03/19 01:41:21;;;;;;;;;;;4.10;99.90;;;2.35;100.00;103908.97;2569960;30;137116;-40
2022/03/19 01:43:48;;;;;;;;;;;4.10;99.90;;;2.31;100.00;103908.25;2570261;30;137632;-39
2022/03/19 01:46:16;;;;;;;;;;;4.00;99.90;;;2.34;100.00;103896.44;2568748;30;136927;-39
2022/03/19 01:48:48;;;;;;;;;;;4.00;99.90;;;2.26;100.00;103899.53;2570344;30;138224;-39
2022/03/19 01:51:15;;;;;;;;;;;4.00;99.90;;;2.37;100.00;103899.81;2569383;30;137617;-39
2022/03/19 01:53:43;;;;;;;;;;;4.00;99.90;;;2.25;100.00;103898.66;2569220;30;139090;-39
2022/03/19 01:56:10;;;;;;;;;;;4.00;99.90;;;2.15;100.00;103890.22;2570629;30;136969;-39
2022/03/19 01:58:37;;;;;;;;;;;3.90;99.90;;;2.17;100.00;103891.97;2570405;30;138217;-39
2022/03/19 02:01:06;;;;;;;;;;;3.90;99.90;;;2.19;100.00;103895.44;2570289;30;137187;-39
2022/03/19 02:03:33;;;;;;;;;;;3.90;99.90;;;2.22;100.00;103893.44;2569205;30;138299;-40
2022/03/19 02:06:02;;;;;;;;;;;3.90;99.90;;;2.20;100.00;103886.41;2569697;30;137230;-40
2022/03/19 02:08:30;;;;;;;;;;;3.90;99.90;;;2.17;100.00;103886.56;2569820;30;138994;-39
2022/03/19 02:10:57;;;;;;;;;;;3.90;99.90;;;2.14;100.00;103883.09;2570456;30;137405;-39
2022/03/19 02:13:25;;;;;;;;;;;3.90;99.90;;;2.11;100.00;103894.00;2569903;30;137390;-39
2022/03/19 02:15:52;;;;;;;;;;;3.90;99.90;;;2.08;100.00;103894.16;2570573;30;136938;-39
2022/03/19 02:18:20;;;;;;;;;;;3.80;99.90;;;2.04;100.00;103889.91;2570319;30;139050;-39
2022/03/19 02:20:51;;;;;;;;;;;3.80;99.90;;;1.99;100.00;103890.16;2569755;30;137000;-39
2022/03/19 02:26:13;;;;;;;;;;;3.70;99.90;;;1.88;100.00;103884.44;2568866;30;136755;-39
2022/03/19 02:28:40;;;;;;;;;;;3.60;99.90;;;1.82;100.00;103877.56;2570481;30;139013;-39
2022/03/19 02:31:08;;;;;;;;;;;3.60;99.90;;;1.72;100.00;103868.22;2570380;30;138226;-39
2022/03/19 02:33:36;;;;;;;;;;;3.50;99.90;;;1.74;100.00;103878.94;2569571;30;138309;-39
2022/03/19 02:36:03;;;;;;;;;;;3.50;99.90;;;1.69;100.00;103877.31;2567123;30;138135;-39
2022/03/19 02:38:31;;;;;;;;;;;3.50;99.90;;;1.63;100.00;103869.56;2572327;30;138277;-39
2022/03/19 02:40:58;;;;;;;;;;;3.40;99.90;;;1.61;100.00;103867.91;2568776;30;137329;-39
2022/03/19 02:43:25;;;;;;;;;;;3.40;99.90;;;1.60;100.00;103863.47;2568534;30;138145;-39
2022/03/19 02:45:53;;;;;;;;;;;3.30;99.90;;;1.62;100.00;103861.59;2570831;30;138023;-40
2022/03/19 02:48:21;;;;;;;;;;;3.40;99.90;;;1.60;100.00;103858.97;2567184;30;138109;-39
2022/03/19 02:50:48;;;;;;;;;;;3.40;99.90;;;1.54;100.00;103861.97;2570863;30;137486;-39
2022/03/19 02:53:15;;;;;;;;;;;3.30;99.90;;;1.51;100.00;103856.75;2569615;30;137690;-39
2022/03/19 02:55:43;;;;;;;;;;;3.30;99.90;;;1.42;100.00;103858.06;2570961;30;137096;-40
2022/03/19 02:58:10;;;;;;;;;;;3.20;99.90;;;1.37;100.00;103847.53;2568385;30;138312;-39
2022/03/19 03:00:38;;;;;;;;;;;3.10;99.90;;;1.27;100.00;103848.94;2571334;30;137194;-39
2022/03/19 03:03:07;;;;;;;;;;;3.10;99.90;;;1.18;100.00;103836.84;2568584;30;137244;-39
2022/03/19 03:05:35;;;;;;;;;;;3.00;99.90;;;1.10;100.00;103841.72;2570386;30;137026;-39
2022/03/19 03:08:03;;;;;;;;;;;2.90;99.90;;;1.08;100.00;103843.63;2569610;30;138318;-39
2022/03/19 03:10:31;;;;;;;;;;;2.80;99.90;;;0.99;100.00;103842.25;2565672;30;137955;-39
2022/03/19 03:12:59;;;;;;;;;;;2.80;99.90;;;0.96;100.00;103843.25;2568322;30;137385;-39
2022/03/19 03:15:27;;;;;;;;;;;2.80;99.90;;;0.97;100.00;103847.69;2569808;30;136924;-39
2022/03/19 03:17:54;;;;;;;;;;;2.70;99.90;;;0.96;100.00;103845.09;2569509;30;137762;-39
2022/03/19 03:20:22;;;;;;;;;;;2.70;99.90;;;1.00;100.00;103835.94;2570682;30;137573;-39
2022/03/19 03:22:50;;;;;;;;;;;2.70;99.90;;;1.03;100.00;103840.25;2568550;30;138329;-39
2022/03/19 03:25:18;;;;;;;;;;;2.80;99.90;;;0.94;100.00;103841.63;2566609;30;137346;-39
2022/03/19 03:27:46;;;;;;;;;;;2.70;99.90;;;0.83;100.00;103842.13;2571197;30;138377;-39
2022/03/19 03:30:15;;;;;;;;;;;2.60;99.90;;;0.88;100.00;103842.78;2568094;30;137692;-40
2022/03/19 03:32:43;;;;;;;;;;;2.60;99.90;;;0.83;100.00;103845.66;2571265;30;138236;-39
2022/03/19 03:35:11;;;;;;;;;;;2.60;99.90;;;0.74;100.00;103847.91;2570628;30;137953;-39
2022/03/19 03:37:38;;;;;;;;;;;2.50;99.90;;;0.64;100.00;103845.69;2570261;30;136733;-39
2022/03/19 03:40:07;;;;;;;;;;;2.50;99.90;;;0.69;100.00;103848.16;2568158;30;136587;-39
2022/03/19 03:42:40;;;;;;;;;;;2.40;99.90;;;0.62;100.00;103852.94;2571506;30;139486;-40
2022/03/19 03:45:08;;;;;;;;;;;2.40;99.90;;;0.59;100.00;103845.03;2570192;30;136671;-40
2022/03/19 03:47:36;;;;;;;;;;;2.40;99.90;;;0.48;100.00;103847.34;2569025;30;137472;-39
2022/03/19 03:50:04;;;;;;;;;;;2.30;99.90;;;0.45;100.00;103837.63;2568520;30;137211;-39
2022/03/19 03:52:32;;;;;;;;;;;2.30;99.90;;;0.42;100.00;103838.63;2567826;30;139233;-39
2022/03/19 03:54:59;;;;;;;;;;;2.20;99.90;;;0.42;100.00;103835.09;2569619;30;137053;-39
2022/03/19 03:57:26;;;;;;;;;;;2.20;99.90;;;0.36;100.00;103841.59;2570137;30;138500;-40
2022/03/19 03:59:54;;;;;;;;;;;2.10;99.90;;;0.33;100.00;103824.75;2568895;30;137304;-39
2022/03/19 04:02:21;;;;;;;;;;;2.10;99.90;;;0.50;100.00;103837.38;2570348;30;138338;-41
2022/03/19 04:04:49;;;;;;;;;;;2.20;99.90;;;0.40;100.00;103829.75;2569443;30;136900;-40
2022/03/19 04:07:16;;;;;;;;;;;2.20;99.90;;;0.32;100.00;103821.19;2568338;30;139143;-39
2022/03/19 04:09:44;;;;;;;;;;;2.10;99.90;;;0.33;100.00;103824.75;2570440;30;137207;-39
2022/03/19 04:12:11;;;;;;;;;;;2.10;99.90;;;0.31;100.00;103822.16;2569499;30;138640;-39
2022/03/19 04:14:38;;;;;;;;;;;2.10;99.90;;;0.27;100.00;103824.09;2569526;30;137020;-39
2022/03/19 04:17:06;;;;;;;;;;;2.00;99.90;;;0.18;100.00;103827.22;2568310;30;139106;-39
2022/03/19 04:19:33;;;;;;;;;;;2.00;99.90;;;0.11;100.00;103817.66;2571734;30;138107;-39
2022/03/19 04:22:01;;;;;;;;;;;1.90;99.90;;;0.24;100.00;103815.28;2567812;30;138590;-40
2022/03/19 04:24:28;;;;;;;;;;;2.00;99.90;;;0.20;100.00;103817.25;2569662;30;137171;-39
2022/03/19 04:26:57;;;;;;;;;;;1.90;99.90;;;0.16;100.00;103814.78;2569418;30;138359;-39
2022/03/19 04:29:24;;;;;;;;;;;1.90;99.90;;;0.14;100.00;103810.34;2569891;30;137510;-39
2022/03/19 04:31:52;;;;;;;;;;;1.90;99.90;;;0.18;100.00;103812.88;2569202;30;137465;-39
2022/03/19 04:34:20;;;;;;;;;;;1.90;99.90;;;0.03;100.00;103791.19;2569518;30;136956;-39
2022/03/19 04:36:47;;;;;;;;;;;1.90;99.90;;;0.23;100.00;103808.19;2572282;30;139450;-40
2022/03/19 04:39:15;;;;;;;;;;;2.00;99.90;;;0.42;100.00;103813.59;2566319;30;137912;-39
2022/03/19 04:41:42;;;;;;;;;;;2.10;99.90;;;0.65;100.00;103814.28;2571127;30;138482;-39
2022/03/19 04:44:10;;;;;;;;;;;2.20;99.90;;;0.73;100.00;103814.81;2569045;30;137778;-39
2022/03/19 04:46:37;;;;;;;;;;;2.40;99.90;;;0.85;100.00;103810.66;2568311;30;138180;-41
2022/03/19 04:49:05;;;;;;;;;;;2.50;99.90;;;1.06;100.00;103805.16;2569282;30;136828;-39
2022/03/19 04:51:36;;;;;;;;;;;2.70;99.90;;;1.02;100.00;103806.25;2571219;30;139177;-39
2022/03/19 04:54:05;;;;;;;;;;;2.70;99.90;;;1.13;100.00;103804.78;2568217;30;137207;-42
2022/03/19 04:56:32;;;;;;;;;;;2.80;99.90;;;1.09;100.00;103818.47;2569572;30;138981;-42
2022/03/19 04:59:01;;;;;;;;;;;2.80;99.90;;;1.13;100.00;103822.75;2569055;30;137299;-43
2022/03/19 05:01:31;;;;;;;;;;;2.80;99.90;;;1.21;100.00;103808.91;2570334;30;137370;-39
2022/03/19 05:03:59;;;;;;;;;;;2.90;99.90;;;1.31;100.00;103812.88;2569974;30;137063;-39
2022/03/19 05:06:28;;;;;;;;;;;3.00;99.90;;;1.46;100.00;103805.84;2569708;30;137345;-39
2022/03/19 05:11:41;;;;;;;;;;;3.20;99.90;;;1.56;100.00;103815.16;2569890;30;137458;-39
2022/03/19 05:14:10;;;;;;;;;;;3.20;99.90;;;1.67;100.00;103819.13;2568356;30;137034;-40
2022/03/19 05:16:37;;;;;;;;;;;3.30;99.90;;;1.65;100.00;103813.81;2571918;30;138307;-39
2022/03/19 05:19:05;;;;;;;;;;;3.30;99.90;;;1.55;100.00;103821.50;2568226;30;137167;-39
2022/03/19 05:21:32;;;;;;;;;;;3.30;99.90;;;1.48;100.00;103817.38;2569586;30;139135;-39
2022/03/19 05:24:00;;;;;;;;;;;3.20;99.90;;;1.38;100.00;103819.69;2569951;30;136862;-41
2022/03/19 05:26:28;;;;;;;;;;;3.10;99.90;;;1.44;100.00;103822.03;2565270;30;138378;-39
2022/03/19 05:28:55;;;;;;;;;;;3.20;99.90;;;1.29;100.00;103818.31;2567058;30;137363;-40
2022/03/19 05:31:32;;;;;;;;;;;3.10;99.90;;;1.20;100.00;103821.47;2569146;30;139015;-39
2022/03/19 05:36:46;;;;;;;;;;;2.90;99.90;;;1.03;100.00;103826.81;2569981;30;138463;-40
2022/03/19 05:39:13;;;;;;;;;;;2.80;99.90;;;0.88;100.00;103832.00;2569690;30;137519;-39
2022/03/19 05:41:41;;;;;;;;;;;2.80;99.90;;;0.83;100.00;103828.69;2569933;30;139239;-40
2022/03/19 05:44:08;;;;;;;;;;;2.60;99.90;;;0.78;100.00;103831.59;2569320;30;137415;-40
2022/03/19 05:46:35;;;;;;;;;;;2.60;99.90;;;0.74;100.00;103834.47;2568414;30;138518;-39
2022/03/19 05:49:03;;;;;;;;;;;2.50;99.90;;;0.77;100.00;103828.97;2568388;30;137410;-40
2022/03/19 05:51:31;;;;;;;;;;;2.50;99.90;;;0.73;100.00;103830.94;2571660;30;137653;-41
2022/03/19 05:53:58;;;;;;;;;;;2.50;99.90;;;0.67;100.00;103828.56;2567547;30;137903;-40
2022/03/19 05:56:26;;;;;;;;;;;2.50;99.90;;;0.56;100.00;103832.59;2569671;30;138147;-39
2022/03/19 05:58:54;;;;;;;;;;;2.40;99.90;;;0.64;100.00;103840.31;2568548;30;136937;-40
2022/03/19 06:01:26;;;;;;;;;;;2.40;99.90;;;0.62;100.00;103839.50;2568888;30;138037;-39
2022/03/19 06:03:58;;;;;;;;;;;2.40;99.90;;;0.55;100.00;103840.75;2572492;30;136695;-40
2022/03/19 06:06:27;;;;;;;;;;;2.40;99.90;;;0.48;100.00;103840.16;2570772;30;137243;-40
2022/03/19 06:08:55;;;;;;;;;;;2.30;99.90;;;0.45;100.00;103836.72;2569669;30;137814;-39
2022/03/19 06:11:22;;;;;;;;;;;2.30;99.90;;;0.47;100.00;103842.91;2568636;30;138209;-39
2022/03/19 06:13:49;;;;;;;;;;;2.20;99.90;;;0.42;100.00;103846.69;2568872;30;136815;-42
2022/03/19 06:16:17;;;;;;;;;;;2.20;99.90;;;0.41;100.00;103836.88;2569278;30;138315;-40
2022/03/19 06:18:50;;;;;;;;;;;2.20;99.90;;;0.43;100.00;103837.69;2567975;30;137757;-39
2022/03/19 06:21:19;;;;;;;;;;;2.10;99.90;;;0.50;100.00;103838.28;2569964;30;137503;-41
2022/03/19 06:23:46;;;;;;;;;;;2.20;99.90;;;0.59;100.00;103842.34;2570632;30;137129;-40
2022/03/19 06:26:14;;;;;;;;;;;2.30;99.90;;;0.64;100.00;103845.69;2567165;30;138458;-39
2022/03/19 06:28:41;;;;;;;;;;;2.30;99.90;;;0.88;100.00;103837.38;2571400;30;136846;-39
2022/03/19 06:31:09;;;;;;;;;;;2.40;99.90;;;1.08;100.00;103838.25;2569488;30;139198;-39
2022/03/19 06:33:41;;;;;;;;;;;2.60;99.90;;;1.36;100.00;103839.56;2570435;30;136934;-39
2022/03/19 06:38:55;;;;;;;;;;;3.00;99.90;;;1.74;100.00;103839.41;2570186;30;137046;-40
2022/03/19 06:41:23;;;;;;;;;;;3.20;99.90;;;1.83;100.00;103836.22;2567988;30;138309;-39
2022/03/19 06:43:51;;;;;;;;;;;3.30;99.90;;;2.07;100.00;103827.78;2569164;30;138667;-41
2022/03/19 06:46:19;;;;;;;;;;;3.50;99.90;;;2.13;100.00;103829.28;2569256;30;139131;-39
2022/03/19 06:48:49;;;;;;;;;;;3.60;99.90;;;2.34;100.00;103839.88;2570924;30;137011;-40
2022/03/19 06:51:18;;;;;;;;;;;3.80;99.90;;;2.56;100.00;103836.84;2570315;30;139131;-40
2022/03/19 06:53:46;;;;;;;;;;;4.00;99.90;;;2.59;100.00;103824.06;2569556;30;137511;-40
2022/03/19 06:56:13;;;;;;;;;;;4.10;99.90;;;2.79;100.00;103837.38;2570989;30;139418;-39
2022/03/19 06:58:43;;;;;;;;;;;4.30;99.90;;;2.99;100.00;103841.63;2569780;30;137363;-39
2022/03/19 07:01:17;;;;;;;;;;;4.40;99.90;;;3.06;100.00;103837.66;2571119;30;138675;-40
2022/03/19 07:03:46;;;;;;;;;;;4.60;99.90;;;3.24;100.00;103841.09;2567391;30;136959;-40
2022/03/19 07:06:15;;;;;;;;;;;4.70;99.90;;;3.28;100.00;103829.16;2569476;30;138272;-40
2022/03/19 07:09:04;;;;;;;;;;;4.80;99.90;;;3.39;100.00;103839.31;2567996;30;137016;-41
2022/03/19 07:11:32;;;;;;;;;;;4.80;99.90;;;3.49;100.00;103833.38;2570899;30;136784;-40
2022/03/19 07:14:01;;;;;;;;;;;4.90;99.90;;;3.64;100.00;103832.47;2569965;30;137572;-39
2022/03/19 07:16:29;;;;;;;;;;;5.10;99.90;;;3.83;100.00;103837.59;2570500;30;137169;-40
2022/03/19 07:18:57;;;;;;;;;;;5.20;99.90;;;4.06;100.00;103838.03;2570784;30;137284;-39
2022/03/19 07:21:25;;;;;;;;;;;5.40;99.90;;;4.30;100.00;103832.91;2569518;30;139180;-39
2022/03/19 07:23:52;;;;;;;;;;;5.60;99.90;;;4.44;100.00;103842.00;2569693;30;137227;-39
2022/03/19 07:26:19;;;;;;;;;;;5.80;99.90;;;4.61;100.00;103832.78;2570651;30;137308;-39
2022/03/19 07:28:47;;;;;;;;;;;6.00;99.90;;;4.75;100.00;103840.84;2568088;30;137216;-39
2022/03/19 07:31:15;;;;;;;;;;;6.10;99.90;;;4.88;100.00;103826.53;2570211;30;138227;-39
2022/03/19 07:33:47;;;;;;;;;;;6.20;99.90;;;4.95;100.00;103813.50;2574810;30;138008;-41
2022/03/19 07:36:14;;;;;;;;;;;6.30;99.90;;;5.16;100.00;103828.28;2567023;30;138180;-41
2022/03/19 07:38:42;;;;;;;;;;;6.50;99.90;;;5.35;100.00;103829.75;2567992;30;136989;-41
2022/03/19 07:43:57;;;;;;;;;;;6.80;99.90;;;5.69;97.77;103818.44;2568053;30;137846;-41
2022/03/19 07:46:27;;;;;;;;;;;7.00;99.90;;;5.82;98.40;103822.00;2567484;30;137306;-41
2022/03/19 07:48:55;;;;;;;;;;;7.10;99.90;;;5.97;96.10;103813.81;2567726;30;137034;-41
2022/03/19 07:51:22;;;;;;;;;;;7.30;99.90;;;6.16;95.59;103816.97;2568585;30;138367;-42
2022/03/19 07:53:50;;;;;;;;;;;7.50;99.90;;;6.33;95.35;103823.00;2569137;30;137350;-41
2022/03/19 07:56:17;;;;;;;;;;;7.60;99.90;;;6.46;95.34;103826.59;2566469;30;138851;-41
2022/03/19 07:58:50;;;;;;;;;;;7.80;99.90;;;6.48;92.82;103811.06;2568852;30;137261;-41
2022/03/19 08:01:18;;;;;;;;;;;7.90;99.90;;;6.58;91.89;103822.13;2567255;30;138260;-41
2022/03/19 08:03:46;;;;;;;;;;;8.00;99.90;;;6.70;91.59;103820.34;2568328;30;137070;-41
2022/03/19 08:06:14;;;;;;;;;;;8.10;99.90;;;6.80;92.58;103811.50;2569127;30;138278;-41
2022/03/19 08:08:42;;;;;;;;;;;8.20;99.90;;;6.88;90.79;103818.09;2568990;30;137252;-41
2022/03/19 08:11:09;;;;;;;;;;;8.20;99.90;;;6.93;90.57;103814.19;2568315;30;138433;-41
2022/03/19 08:13:38;;;;;;;;;;;8.30;99.90;;;6.99;88.75;103814.59;2566510;30;137036;-41
2022/03/19 08:16:07;;;;;;;;;;;8.40;99.90;;;7.12;90.61;103808.22;2568361;30;138417;-41
2022/03/19 08:18:36;;;;;;;;;;;8.50;99.90;;;7.30;89.29;103795.97;2568409;30;137177;-41
2022/03/19 08:21:03;;;;;;;;;;;8.60;99.90;;;7.42;87.62;103802.31;2568459;30;139695;-41
2022/03/19 08:23:31;;;;;;;;;;;8.70;99.90;;;7.54;87.25;103803.19;2567241;30;136635;-41
2022/03/19 08:25:58;;;;;;;;;;;8.90;99.90;;;7.64;86.53;103806.06;2568272;30;138613;-41
2022/03/19 08:28:25;;;;;;;;;;;9.00;99.90;;;7.75;86.76;103800.66;2568553;30;137903;-41
2022/03/19 08:30:52;;;;;;;;;;;9.10;99.90;;;7.82;85.16;103808.31;2566883;30;138269;-41
2022/03/19 08:33:20;;;;;;;;;;;9.20;99.90;;;7.89;87.11;103802.28;2568211;30;137707;-41
2022/03/19 08:35:47;;;;;;;;;;;9.30;99.90;;;8.01;84.71;103803.16;2568258;30;137043;-41
2022/03/19 08:41:00;;;;;;;;;;;9.40;99.90;;;8.26;84.89;103805.78;2568471;30;138401;-42
2022/03/19 08:43:31;;;;;;;;;;;9.60;99.90;;;8.38;84.72;103793.88;2568594;30;137832;-41
2022/03/19 08:46:00;;;;;;;;;;;9.60;99.90;;;8.47;83.13;103792.25;2568079;30;137938;-41
2022/03/19 08:48:27;;;;;;;;;;;9.80;99.90;;;8.63;79.99;103800.94;2568697;30;137124;-41
2022/03/19 08:51:39;;;;;;;;;;;9.90;99.90;;;8.65;80.63;103795.34;2567126;30;137369;-41
2022/03/19 08:53:47;;;;;;;;;;;10.00;99.90;;;8.65;80.07;103800.81;2567972;30;137050;-41
2022/03/19 08:56:15;;;;;;;;;;;10.00;99.90;;;8.81;80.85;103794.94;2568545;30;137075;-41
2022/03/19 08:58:42;;;;;;;;;;;10.10;99.90;;;8.89;79.31;103794.31;2568659;30;136677;-41
2022/03/19 09:01:10;;;;;;;;;;;10.20;99.90;;;8.98;79.78;103796.25;2567994;30;138927;-41
2022/03/19 09:03:37;;;;;;;;;;;10.30;99.90;;;9.04;77.09;103787.59;2565652;30;137018;-41
2022/03/19 09:06:05;;;;;;;;;;;10.40;99.90;;;9.02;75.98;103788.69;2569028;30;138392;-41
2022/03/19 09:08:32;;;;;;;;;;;10.40;99.90;;;9.06;78.17;103784.72;2567381;30;137277;-40
2022/03/19 09:11:00;;;;;;;;;;;10.40;99.90;;;9.17;75.90;103786.53;2565508;30;139177;-41
2022/03/19 09:13:27;;;;;;;;;;;10.50;99.90;;;9.18;74.87;103780.09;2568918;30;137873;-42
2022/03/19 09:15:54;;;;;;;;;;;10.50;99.90;;;9.24;74.20;103774.09;2567600;30;137385;-41
2022/03/19 09:18:22;;;;;;;;;;;10.60;99.90;;;9.36;74.73;103774.91;2569026;30;136868;-41
2022/03/19 09:20:49;;;;;;;;;;;10.70;99.90;;;9.38;72.85;103769.34;2569191;30;137875;-41
2022/03/19 09:23:17;;;;;;;;;;;10.70;99.90;;;9.41;71.03;103766.34;2567514;30;136864;-41
2022/03/19 09:25:44;;;;;;;;;;;10.80;99.90;;;9.47;70.37;103758.50;2568277;30;137628;-41
2022/03/19 09:28:12;;;;;;;;;;;10.80;99.90;;;9.60;70.93;103761.03;2567771;30;137819;-41
2022/03/19 09:30:39;;;;;;;;;;;10.90;99.90;;;9.67;68.79;103761.34;2568243;30;138259;-41
2022/03/19 09:33:07;;;;;;;;;;;11.00;99.90;;;9.74;67.81;103754.38;2568567;30;137025;-41
2022/03/19 09:35:45;;;;;;;;;;;11.10;99.90;;;9.89;67.16;103759.44;2567522;30;137402;-41
2022/03/19 09:38:15;;;;;;;;;;;11.20;99.90;;;9.94;65.00;103754.44;2565943;30;137233;-42
2022/03/19 09:40:43;;;;;;;;;;;11.30;99.10;;;10.04;66.13;103746.31;2565297;30;138879;-41
2022/03/19 09:43:10;;;;;;;;;;;11.40;99.70;;;10.08;64.55;103747.78;2566589;30;136717;-41
2022/03/19 09:45:40;;;;;;;;;;;11.40;98.60;;;10.14;63.52;103741.78;2569354;30;137148;-42
2022/03/19 09:48:08;;;;;;;;;;;11.40;98.00;;;10.24;60.54;103740.94;2565525;30;137171;-40
2022/03/19 09:50:35;;;;;;;;;;;11.60;95.90;;;10.41;62.02;103739.41;2566807;30;138416;-41
2022/03/19 09:53:04;;;;;;;;;;;11.70;96.80;;;10.55;58.04;103732.69;2567416;30;137933;-42
2022/03/19 09:55:33;;;;;;;;;;;11.80;94.40;;;10.57;55.86;103730.69;2568474;30;138566;-42
2022/03/19 09:58:02;;;;;;;;;;;11.90;92.00;;;10.63;57.39;103728.25;2567863;30;137778;-41
2022/03/19 10:00:30;;;;;;;;;;;11.90;92.90;;;10.85;56.94;103731.72;2567703;30;138326;-41
2022/03/19 10:03:03;;;;;;;;;;;12.00;92.10;;;11.00;56.16;103712.16;2568428;30;137012;-41
2022/03/19 10:11:15;;;;;;;;;;;12.50;86.10;;;11.41;50.80;103698.31;2567903;30;136679;-41
2022/03/19 10:13:44;;;;;;;;;;;;;;;11.38;50.14;103702.19;2568448;30;136986;-41
2022/03/19 10:16:22;;;;;;;;;;;12.60;84.10;;;11.41;50.39;103695.59;2568743;30;138335;-41
2022/03/19 10:18:58;;;;;;;;;;;12.70;83.50;;;11.29;52.26;103698.47;2569319;30;136849;-41
2022/03/19 10:21:28;;;;;;;;;;;12.70;85.00;;;11.14;51.28;103683.53;2568595;30;136687;-41
2022/03/19 10:23:59;;;;;;;;;;;12.60;83.50;;;11.32;51.61;103687.25;2568879;30;137252;-42
2022/03/19 10:26:26;;;;;;;;;;;12.60;84.20;;;11.28;50.79;103688.53;2568072;30;138233;-41
2022/03/19 10:29:02;;;;;;;;;;;12.60;82.70;;;11.27;48.97;103683.22;2569045;30;137014;-41
2022/03/19 10:31:32;;;;;;;;;;;12.60;80.00;;;11.41;51.08;103677.28;2568969;30;138470;-41
2022/03/19 10:34:01;;;;;;;;;;;12.70;83.00;;;11.61;52.37;103677.25;2569618;30;136920;-41
2022/03/19 10:36:35;;;;;;;;;;;12.80;85.50;;;11.69;50.94;103669.13;2568403;30;137167;-41
2022/03/19 10:39:27;;;;;;;;;;;12.90;82.60;;;11.61;49.67;103658.94;2568341;30;137017;-41
2022/03/19 10:41:57;;;;;;;;;;;13.00;80.30;;;11.62;50.63;103668.88;2567560;30;138424;-41
2022/03/19 10:44:26;;;;;;;;;;;12.90;81.00;;;11.51;48.31;103678.13;2567151;30;137382;-41
2022/03/19 10:46:59;;;;;;;;;;;12.90;78.00;;;11.64;50.22;103664.09;2568185;30;138371;-41
2022/03/19 10:49:29;;;;;;;;;;;12.90;80.90;;;11.54;48.96;103654.22;2568399;30;137099;-42
2022/03/19 10:51:59;;;;;;;;;;;12.90;78.50;;;11.61;51.14;103661.69;2567251;30;137377;-41
2022/03/19 10:54:26;;;;;;;;;;;12.90;81.60;;;11.39;48.10;103643.78;2568562;30;136761;-41
2022/03/19 10:56:54;;;;;;;;;;;12.90;77.50;;;11.41;49.38;103643.66;2566414;30;138348;-41
2022/03/19 10:59:22;;;;;;;;;;;12.80;79.00;;;11.44;49.28;103646.06;2568308;30;136834;-41
2022/03/19 11:01:50;;;;;;;;;;;12.80;78.70;;;11.39;46.69;103631.97;2568851;30;137123;-41
2022/03/19 11:04:20;;;;;;;;;;;12.80;75.90;;;11.48;48.59;103650.22;2569591;30;136779;-41
2022/03/19 11:06:51;;;;;;;;;;;12.80;78.00;;;11.51;47.06;103639.84;2567020;30;137387;-40
2022/03/19 11:09:22;;;;;;;;;;;12.80;75.20;;;11.49;45.00;103639.13;2568559;30;137047;-41
2022/03/19 11:11:57;;;;;;;;;;;12.80;73.30;;;11.58;44.30;103637.38;2569083;30;138390;-41
2022/03/19 11:14:27;;;;;;;;;;;12.90;73.00;;;11.57;43.28;103632.91;2568315;30;136889;-41
2022/03/19 11:17:32;;;;;;;;;;;12.90;71.20;;;11.68;42.20;103629.13;2566708;30;138299;-41
2022/03/19 11:20:04;;;;;;;;;;;13.00;73.00;;;11.87;43.26;103624.56;2568839;30;137806;-41
2022/03/19 11:22:39;;;;;;;;;;;13.10;72.30;;;11.64;41.64;103620.34;2566042;30;138281;-41
2022/03/19 11:25:20;;;;;;;;;;;13.00;70.60;;;11.63;42.20;103615.91;2567220;30;138496;-41
2022/03/19 11:27:50;;;;;;;;;;;13.00;70.20;;;11.87;40.80;103603.53;2567360;30;138227;-41
2022/03/19 11:30:22;;;;;;;;;;;13.10;68.80;;;11.87;40.40;103595.31;2567050;30;136960;-41
2022/03/19 11:33:14;;;;;;;;;;;13.20;68.20;;;11.62;39.90;103610.59;2568808;30;139157;-40
2022/03/19 11:35:45;;;;;;;;;;;13.10;66.40;;;11.54;40.86;103594.94;2569296;30;137654;-41
2022/03/19 11:38:16;;;;;;;;;;;12.90;68.70;;;11.49;41.44;103595.38;2568353;30;138272;-41